Clearlake, Washington
Current Conditions -  °F | °C
As of 4:55 AM on Saturday 01 Nov 2014 (Local Time) from KAWO Reporting Station
Overcast Overcast  
Wind Chill:   Ceiling: 200
Heat Index:   Visibility: 2mi
Dew Point:   Wind: 3mph
Humidity: 87%   Direction: 320°NW
Pressure: 29.87"   Gusts: NA
Location:  48.46°N, 122.23°W
Report Text: KAWO 011155Z AUTO 32003KT 2SM OVC002 06/04 A2987 RMK AO1 70018 10080 20060 57007
Loading
Personal Weather Stations






























Interactive Weather Map
Tropical Storm Tracking
New forecast layout! Learn more

10-Day Weather Forecast

Advertisements
Track Severe Weather on mobile